Terminal Aerodrome Forecast
Issued by NWS Cleveland, OH

Home | Current Version | Previous Version | Graphics & Text | Print | Product List | Glossary Off
Versions: 1 2 3 4 5 6 7 8 9 10 11 12 13 14 15

000
FTUS41 KCLE 260655 AAA
TAFYNG
TAF AMD
KYNG 260655Z 2607/2706 28004KT P6SM SCT018 OVC050
      TEMPO 2607/2611 -SHRA BKN018
     FM261100 28004KT P6SM VCSH BKN018 OVC040
     FM261600 30008KT P6SM OVC035
     FM270000 33003KT P6SM OVC035=

USA.gov is the U.S. government's official web portal to all federal, state and local government web resources and services.